createdAt,value
2023-03-29T00:01:36.726Z,1.95
2023-03-29T00:04:06.450Z,1.90
2023-03-29T00:06:35.770Z,1.95
2023-03-29T00:09:06.905Z,2.09
2023-03-29T00:11:37.215Z,2.20
2023-03-29T00:14:06.467Z,2.22
2023-03-29T00:16:35.398Z,2.28
2023-03-29T00:19:04.733Z,2.32
2023-03-29T00:21:33.723Z,2.32
2023-03-29T00:24:02.700Z,2.28
2023-03-29T00:26:31.651Z,2.27
2023-03-29T00:29:02.278Z,2.25
2023-03-29T00:31:31.792Z,2.23
2023-03-29T00:34:00.743Z,2.22
2023-03-29T00:36:31.862Z,2.28
2023-03-29T00:39:00.871Z,2.30
2023-03-29T00:41:29.759Z,2.32
2023-03-29T00:44:02.529Z,2.42
2023-03-29T00:46:32.317Z,2.51
2023-03-29T00:49:07.757Z,2.47
2023-03-29T00:51:39.594Z,2.44
2023-03-29T00:54:15.097Z,2.43
2023-03-29T00:56:50.108Z,2.40
2023-03-29T00:59:23.881Z,2.45
2023-03-29T01:01:59.882Z,2.46
2023-03-29T01:04:34.014Z,2.39
2023-03-29T01:07:08.802Z,2.34
2023-03-29T01:09:41.103Z,2.39
2023-03-29T01:12:14.579Z,2.34
2023-03-29T01:14:49.952Z,2.32
2023-03-29T01:17:21.984Z,2.29
2023-03-29T01:19:59.126Z,2.28
2023-03-29T01:22:39.638Z,2.37
2023-03-29T01:25:17.289Z,2.45
2023-03-29T01:27:54.691Z,2.54
2023-03-29T01:30:30.754Z,2.66
2023-03-29T01:33:04.024Z,2.66
2023-03-29T01:35:39.829Z,2.59
2023-03-29T01:38:14.643Z,2.56
2023-03-29T01:40:43.830Z,2.48
2023-03-29T01:43:23.719Z,2.41
2023-03-29T01:46:02.233Z,2.42
2023-03-29T01:48:34.569Z,2.49
2023-03-29T01:51:08.474Z,2.55
2023-03-29T01:53:42.177Z,2.60
2023-03-29T01:56:15.760Z,2.67
2023-03-29T01:58:49.261Z,2.67
2023-03-29T02:01:23.291Z,2.80
2023-03-29T02:03:56.633Z,2.79
2023-03-29T02:06:28.760Z,2.81
2023-03-29T02:08:58.315Z,2.86
2023-03-29T02:11:29.481Z,2.85
2023-03-29T02:14:00.014Z,2.88
2023-03-29T02:16:29.037Z,2.90
2023-03-29T02:18:58.737Z,2.99
2023-03-29T02:21:34.282Z,3.02
2023-03-29T02:24:08.771Z,3.02
2023-03-29T02:26:38.167Z,3.06
2023-03-29T02:29:10.058Z,3.01
2023-03-29T02:31:42.944Z,3.06
2023-03-29T02:34:20.641Z,3.09
2023-03-29T02:36:53.634Z,3.14
2023-03-29T02:39:23.241Z,3.14
2023-03-29T02:41:55.296Z,3.23
2023-03-29T02:44:29.439Z,3.32
2023-03-29T02:47:03.465Z,3.30
2023-03-29T02:49:32.737Z,3.27
2023-03-29T02:52:08.663Z,3.23
2023-03-29T02:54:43.669Z,3.29
2023-03-29T02:57:13.546Z,3.30
2023-03-29T02:59:45.133Z,3.31
2023-03-29T03:02:14.252Z,3.34
2023-03-29T03:04:44.916Z,3.30
2023-03-29T03:07:14.274Z,3.34
2023-03-29T03:09:43.201Z,3.32
2023-03-29T03:12:12.137Z,3.28
2023-03-29T03:14:41.191Z,3.24
2023-03-29T03:17:11.501Z,3.23
2023-03-29T03:19:40.643Z,3.25
2023-03-29T03:22:10.194Z,3.31
2023-03-29T03:24:39.171Z,3.39
2023-03-29T03:27:08.669Z,3.41
2023-03-29T03:29:38.740Z,3.39
2023-03-29T03:32:27.600Z,3.46
2023-03-29T03:35:19.393Z,3.46
2023-03-29T03:37:48.734Z,3.53
2023-03-29T03:40:20.922Z,3.55
2023-03-29T03:42:50.661Z,3.53
2023-03-29T03:45:20.502Z,3.57
2023-03-29T03:47:51.657Z,3.66
2023-03-29T03:50:26.428Z,3.67
2023-03-29T03:52:55.756Z,3.75
2023-03-29T03:55:24.726Z,3.80
2023-03-29T03:58:08.830Z,3.85
2023-03-29T04:00:37.865Z,3.95
2023-03-29T04:03:24.401Z,3.99
2023-03-29T04:05:54.456Z,4.05
2023-03-29T04:08:27.398Z,4.07
2023-03-29T04:11:19.309Z,4.09
2023-03-29T04:13:48.523Z,4.18
2023-03-29T04:16:43.775Z,4.22
2023-03-29T04:19:34.143Z,4.25
2023-03-29T04:22:03.169Z,4.27
2023-03-29T04:24:32.167Z,4.33
2023-03-29T04:27:24.116Z,4.37
2023-03-29T04:29:53.557Z,4.44
2023-03-29T04:32:54.332Z,4.49
2023-03-29T04:35:24.838Z,4.60
2023-03-29T04:37:54.800Z,4.75
2023-03-29T04:40:25.464Z,4.88
2023-03-29T04:43:10.713Z,4.95
2023-03-29T04:45:45.754Z,5.07
2023-03-29T04:48:25.903Z,5.10
2023-03-29T04:50:56.949Z,5.02
2023-03-29T04:53:26.196Z,5.08
2023-03-29T04:55:55.864Z,5.07
2023-03-29T04:58:45.484Z,5.29
2023-03-29T05:01:15.151Z,5.53
2023-03-29T05:03:49.347Z,5.65
2023-03-29T05:06:27.160Z,5.86
2023-03-29T05:08:56.309Z,5.97
2023-03-29T05:11:32.908Z,6.21
2023-03-29T05:14:03.468Z,6.20
2023-03-29T05:16:35.960Z,6.28
2023-03-29T05:19:05.743Z,6.27
2023-03-29T05:21:39.833Z,6.15
2023-03-29T05:24:12.390Z,6.17
2023-03-29T05:26:56.619Z,6.14
2023-03-29T05:29:26.965Z,6.07
2023-03-29T05:32:08.310Z,5.94
2023-03-29T05:34:37.357Z,5.96
2023-03-29T05:37:08.722Z,6.00
2023-03-29T05:39:50.221Z,6.01
2023-03-29T05:42:23.774Z,6.16
2023-03-29T05:44:59.510Z,6.30
2023-03-29T05:47:28.819Z,6.32
2023-03-29T05:49:58.053Z,6.29
2023-03-29T05:52:32.386Z,6.45
2023-03-29T05:55:01.374Z,6.56
2023-03-29T05:57:30.811Z,6.81
2023-03-29T05:59:59.851Z,6.82
2023-03-29T06:02:29.763Z,6.83
2023-03-29T06:04:59.662Z,6.89
2023-03-29T06:07:42.564Z,6.88
2023-03-29T06:10:18.118Z,6.86
2023-03-29T06:12:51.765Z,7.19
2023-03-29T06:15:24.394Z,7.45
2023-03-29T06:17:58.426Z,7.70
2023-03-29T06:20:27.558Z,7.88
2023-03-29T06:23:04.803Z,7.96
2023-03-29T06:25:34.317Z,7.93
2023-03-29T06:28:04.273Z,8.08
2023-03-29T06:30:33.824Z,8.36
2023-03-29T06:33:03.167Z,8.43
2023-03-29T06:35:58.722Z,8.54
2023-03-29T06:38:32.198Z,8.31
2023-03-29T06:41:12.361Z,8.37
2023-03-29T06:44:10.213Z,8.47
2023-03-29T06:46:54.015Z,8.81
2023-03-29T06:49:23.314Z,8.90
2023-03-29T06:52:06.848Z,8.87
2023-03-29T06:54:37.525Z,8.62
2023-03-29T06:57:08.015Z,8.44
2023-03-29T06:59:37.250Z,8.57
2023-03-29T07:02:29.212Z,8.56
2023-03-29T07:05:18.968Z,8.37
2023-03-29T07:07:57.172Z,8.28
2023-03-29T07:10:39.520Z,8.35
2023-03-29T07:13:27.830Z,8.49
2023-03-29T07:15:59.944Z,8.70
2023-03-29T07:18:58.202Z,9.46
2023-03-29T07:21:46.090Z,9.60
2023-03-29T07:24:16.841Z,9.70
2023-03-29T07:27:00.124Z,9.80
2023-03-29T07:29:32.069Z,9.66
2023-03-29T07:32:01.260Z,9.76
2023-03-29T07:34:46.382Z,9.52
2023-03-29T07:37:26.069Z,9.48
2023-03-29T07:39:59.814Z,9.22
2023-03-29T07:42:47.716Z,9.07
2023-03-29T07:45:26.556Z,8.75
2023-03-29T07:48:14.805Z,8.73
2023-03-29T07:51:01.094Z,8.89
2023-03-29T07:53:35.718Z,8.75
2023-03-29T07:56:08.141Z,9.02
2023-03-29T07:58:55.218Z,9.14
2023-03-29T08:01:24.986Z,9.23
2023-03-29T08:04:03.428Z,9.25
2023-03-29T08:07:01.934Z,9.45
2023-03-29T08:09:54.097Z,9.37
2023-03-29T08:12:32.563Z,9.68
2023-03-29T08:15:03.670Z,10.06
2023-03-29T08:17:37.554Z,10.54
2023-03-29T08:20:11.230Z,10.75
2023-03-29T08:22:42.752Z,10.97
2023-03-29T08:25:17.805Z,11.36
2023-03-29T08:27:51.112Z,11.40
2023-03-29T08:30:33.273Z,11.38
2023-03-29T08:33:03.525Z,11.22
2023-03-29T08:35:33.023Z,11.25
2023-03-29T08:38:14.355Z,11.13
2023-03-29T08:40:44.084Z,11.02
2023-03-29T08:43:27.159Z,10.73
2023-03-29T08:46:35.463Z,10.70
2023-03-29T08:49:32.213Z,10.53
2023-03-29T08:52:07.826Z,10.25
2023-03-29T08:54:44.917Z,10.15
2023-03-29T08:57:34.744Z,10.15
2023-03-29T09:00:18.110Z,10.33
2023-03-29T09:02:53.965Z,10.52
2023-03-29T09:05:28.151Z,10.39
2023-03-29T09:08:32.953Z,10.23
2023-03-29T09:11:18.265Z,9.99
2023-03-29T09:13:57.935Z,9.75
2023-03-29T09:16:34.830Z,9.52
2023-03-29T09:19:13.529Z,9.65
2023-03-29T09:21:49.807Z,9.67
2023-03-29T09:24:40.842Z,9.87
2023-03-29T09:27:22.094Z,10.19
2023-03-29T09:30:07.625Z,10.41
2023-03-29T09:32:58.577Z,10.59
2023-03-29T09:35:39.692Z,10.74
2023-03-29T09:38:13.242Z,10.66
2023-03-29T09:40:48.113Z,10.55
2023-03-29T09:43:31.936Z,10.31
2023-03-29T09:46:06.394Z,9.98
2023-03-29T09:48:39.437Z,9.70
2023-03-29T09:51:14.280Z,9.42
2023-03-29T09:53:43.593Z,9.15
2023-03-29T09:56:48.148Z,8.79
2023-03-29T09:59:22.363Z,8.57
2023-03-29T10:01:51.761Z,8.40
2023-03-29T10:04:22.430Z,8.26
2023-03-29T10:07:01.292Z,8.01
2023-03-29T10:09:32.704Z,7.96
2023-03-29T10:12:15.410Z,7.76
2023-03-29T10:14:48.065Z,7.72
2023-03-29T10:17:21.922Z,7.66
2023-03-29T10:19:52.575Z,7.47
2023-03-29T10:22:25.721Z,7.21
2023-03-29T10:24:58.286Z,7.04
2023-03-29T10:27:29.547Z,6.95
2023-03-29T10:30:01.120Z,7.01
2023-03-29T10:32:35.038Z,6.90
2023-03-29T10:35:11.041Z,6.89
2023-03-29T10:37:44.485Z,7.00
2023-03-29T10:40:23.417Z,7.22
2023-03-29T10:42:54.035Z,7.30
2023-03-29T10:45:27.423Z,7.45
2023-03-29T10:47:57.520Z,7.42
2023-03-29T10:50:28.317Z,7.44
2023-03-29T10:52:59.283Z,7.45
2023-03-29T10:55:36.348Z,7.42
2023-03-29T10:58:18.784Z,7.35
2023-03-29T11:00:53.584Z,7.12
2023-03-29T11:03:49.735Z,7.01
2023-03-29T11:06:26.773Z,6.99
2023-03-29T11:09:00.095Z,7.08
2023-03-29T11:11:48.571Z,7.01
2023-03-29T11:14:26.841Z,6.98
2023-03-29T11:17:09.281Z,6.85
2023-03-29T11:19:57.849Z,6.95
2023-03-29T11:22:47.200Z,6.92
2023-03-29T11:25:34.788Z,6.93
2023-03-29T11:28:11.700Z,6.83
2023-03-29T11:30:46.150Z,6.87
2023-03-29T11:33:38.957Z,6.85
2023-03-29T11:36:16.878Z,6.82
2023-03-29T11:38:59.635Z,6.76
2023-03-29T11:41:32.963Z,6.73
2023-03-29T11:44:07.084Z,6.68
2023-03-29T11:46:41.018Z,6.69
2023-03-29T11:49:16.142Z,6.69
2023-03-29T11:51:47.232Z,6.55
2023-03-29T11:54:21.725Z,6.55
2023-03-29T11:56:58.650Z,6.47
2023-03-29T11:59:35.020Z,6.49
2023-03-29T12:02:11.744Z,6.63
2023-03-29T12:04:47.824Z,6.45
2023-03-29T12:07:21.240Z,6.43
2023-03-29T12:09:55.733Z,6.56
2023-03-29T12:12:30.796Z,6.49
2023-03-29T12:15:07.077Z,6.63
2023-03-29T12:17:43.267Z,6.69
2023-03-29T12:20:19.350Z,6.62
2023-03-29T12:22:52.545Z,6.55
2023-03-29T12:25:26.557Z,6.48
2023-03-29T12:28:15.561Z,6.35
2023-03-29T12:30:52.992Z,6.26
2023-03-29T12:33:34.093Z,6.40
2023-03-29T12:36:46.670Z,6.39
2023-03-29T12:39:42.263Z,6.41
2023-03-29T12:42:30.835Z,6.42
2023-03-29T12:45:22.193Z,6.36
2023-03-29T12:47:53.431Z,6.33
2023-03-29T12:50:29.093Z,6.56
2023-03-29T12:53:16.994Z,6.62
2023-03-29T12:55:55.153Z,6.46
2023-03-29T12:58:38.959Z,6.50
2023-03-29T13:01:25.168Z,6.64
2023-03-29T13:03:58.643Z,6.51
2023-03-29T13:06:33.907Z,6.50
2023-03-29T13:09:21.616Z,6.47
2023-03-29T13:11:54.745Z,6.25
2023-03-29T13:14:30.133Z,6.19
2023-03-29T13:17:17.874Z,6.15
2023-03-29T13:19:54.604Z,6.07
2023-03-29T13:22:29.792Z,6.01
2023-03-29T13:25:10.902Z,6.01
2023-03-29T13:27:49.835Z,5.91
2023-03-29T13:30:33.029Z,5.95
2023-03-29T13:33:21.289Z,5.98
2023-03-29T13:36:01.524Z,5.98
2023-03-29T13:38:33.317Z,5.95
2023-03-29T13:41:04.475Z,5.91
2023-03-29T13:43:51.145Z,5.90
2023-03-29T13:46:24.859Z,5.85
2023-03-29T13:49:05.556Z,5.79
2023-03-29T13:51:39.996Z,5.78
2023-03-29T13:54:21.487Z,5.84
2023-03-29T13:57:13.968Z,5.89
2023-03-29T13:59:50.672Z,5.95
2023-03-29T14:02:39.316Z,5.91
2023-03-29T14:05:13.150Z,5.76
2023-03-29T14:07:47.381Z,5.65
2023-03-29T14:10:20.268Z,5.61
2023-03-29T14:12:50.084Z,5.71
2023-03-29T14:15:27.836Z,5.74
2023-03-29T14:18:00.791Z,5.73
2023-03-29T14:20:34.205Z,5.69
2023-03-29T14:23:13.261Z,5.79
2023-03-29T14:25:43.346Z,5.76
2023-03-29T14:28:21.970Z,5.71
2023-03-29T14:30:52.919Z,5.69
2023-03-29T14:33:27.549Z,5.82
2023-03-29T14:36:00.987Z,5.92
2023-03-29T14:38:31.552Z,5.84
2023-03-29T14:41:02.528Z,5.85
2023-03-29T14:43:33.096Z,5.93
2023-03-29T14:46:05.640Z,5.85
2023-03-29T14:48:35.910Z,5.90
2023-03-29T14:51:08.511Z,5.83
2023-03-29T14:53:39.169Z,5.74
2023-03-29T14:56:12.544Z,5.72
2023-03-29T14:58:46.881Z,5.74
2023-03-29T15:01:19.363Z,5.71
2023-03-29T15:03:54.953Z,5.71
2023-03-29T15:06:27.187Z,5.68
2023-03-29T15:09:06.140Z,5.67
2023-03-29T15:11:40.042Z,5.67
2023-03-29T15:14:18.256Z,5.66
2023-03-29T15:16:48.719Z,5.71
2023-03-29T15:19:20.626Z,5.67
2023-03-29T15:21:55.083Z,5.63
2023-03-29T15:24:34.013Z,5.63
2023-03-29T15:27:12.539Z,5.61
2023-03-29T15:29:43.971Z,5.63
2023-03-29T15:32:22.777Z,5.65
2023-03-29T15:35:00.572Z,5.69
2023-03-29T15:37:34.184Z,5.69
2023-03-29T15:40:09.993Z,5.70
2023-03-29T15:42:39.159Z,5.66
2023-03-29T15:45:15.832Z,5.72
2023-03-29T15:47:45.195Z,5.75
2023-03-29T15:50:15.621Z,5.68
2023-03-29T15:52:46.485Z,5.69
2023-03-29T15:55:15.912Z,5.71
2023-03-29T15:57:49.030Z,5.69
2023-03-29T16:00:24.338Z,5.73
2023-03-29T16:02:54.512Z,5.73
2023-03-29T16:05:23.547Z,5.69
2023-03-29T16:07:54.321Z,5.71
2023-03-29T16:10:23.452Z,5.77
2023-03-29T16:12:52.466Z,5.81
2023-03-29T16:15:24.187Z,5.81
2023-03-29T16:17:53.685Z,5.77
2023-03-29T16:20:22.890Z,5.78
2023-03-29T16:22:55.533Z,5.76
2023-03-29T16:25:25.278Z,5.69
2023-03-29T16:27:54.367Z,5.68
2023-03-29T16:30:25.241Z,5.73
2023-03-29T16:33:02.069Z,5.79
2023-03-29T16:35:33.463Z,5.82
2023-03-29T16:38:04.440Z,5.76
2023-03-29T16:40:34.917Z,5.77
2023-03-29T16:43:07.811Z,5.72
2023-03-29T16:45:44.340Z,5.76
2023-03-29T16:48:15.288Z,5.69
2023-03-29T16:50:44.422Z,5.65
2023-03-29T16:53:19.068Z,5.66
2023-03-29T16:55:49.369Z,5.59
2023-03-29T16:58:20.877Z,5.58
2023-03-29T17:00:52.260Z,5.62
2023-03-29T17:03:21.880Z,5.67
2023-03-29T17:05:51.202Z,5.59
2023-03-29T17:08:27.972Z,5.58
2023-03-29T17:10:58.151Z,5.63
2023-03-29T17:13:27.969Z,5.60
2023-03-29T17:15:58.874Z,5.68
2023-03-29T17:18:31.287Z,5.69
2023-03-29T17:21:02.081Z,5.75
2023-03-29T17:23:32.846Z,5.72
2023-03-29T17:26:02.371Z,5.70
2023-03-29T17:28:31.579Z,5.60
2023-03-29T17:31:04.162Z,5.59
2023-03-29T17:33:35.585Z,5.58
2023-03-29T17:36:06.445Z,5.58
2023-03-29T17:38:38.391Z,5.65
2023-03-29T17:41:08.540Z,5.67
2023-03-29T17:43:38.223Z,5.61
2023-03-29T17:46:07.938Z,5.56
2023-03-29T17:48:38.391Z,5.53
2023-03-29T17:51:08.396Z,5.55
2023-03-29T17:53:39.266Z,5.55
2023-03-29T17:56:10.080Z,5.53
2023-03-29T17:58:45.624Z,5.54
2023-03-29T18:01:19.959Z,5.50
2023-03-29T18:03:50.147Z,5.55
2023-03-29T18:06:21.110Z,5.47
2023-03-29T18:08:53.289Z,5.39
2023-03-29T18:11:25.032Z,5.41
2023-03-29T18:13:54.883Z,5.41
2023-03-29T18:16:24.254Z,5.45
2023-03-29T18:18:53.709Z,5.53
2023-03-29T18:21:22.840Z,5.55
2023-03-29T18:23:55.550Z,5.59
2023-03-29T18:26:26.188Z,5.60
2023-03-29T18:28:55.403Z,5.56
2023-03-29T18:31:24.539Z,5.53
2023-03-29T18:33:53.971Z,5.51
2023-03-29T18:36:25.503Z,5.46
2023-03-29T18:38:56.363Z,5.44
2023-03-29T18:41:26.148Z,5.41
2023-03-29T18:43:57.514Z,5.47
2023-03-29T18:46:30.608Z,5.66
2023-03-29T18:49:02.893Z,5.52
2023-03-29T18:51:33.178Z,5.56
2023-03-29T18:54:04.558Z,5.59
2023-03-29T18:56:33.703Z,5.55
2023-03-29T18:59:05.379Z,5.50
2023-03-29T19:01:35.899Z,5.51
2023-03-29T19:04:05.295Z,5.62
2023-03-29T19:06:34.617Z,5.65
2023-03-29T19:09:05.453Z,5.53
2023-03-29T19:11:36.212Z,5.51
2023-03-29T19:14:15.512Z,5.55
2023-03-29T19:16:44.644Z,5.60
2023-03-29T19:19:14.224Z,5.54
2023-03-29T19:21:48.894Z,5.62
2023-03-29T19:24:19.743Z,5.53
2023-03-29T19:26:50.156Z,5.56
2023-03-29T19:29:19.709Z,5.54
2023-03-29T19:31:48.977Z,5.40
2023-03-29T19:34:20.864Z,5.27
2023-03-29T19:36:51.979Z,5.18
2023-03-29T19:39:25.265Z,5.19
2023-03-29T19:41:55.216Z,5.18
2023-03-29T19:44:24.806Z,5.14
2023-03-29T19:46:56.523Z,5.14
2023-03-29T19:49:25.799Z,5.13
2023-03-29T19:51:55.690Z,5.12
2023-03-29T19:54:26.642Z,5.13
2023-03-29T19:56:57.499Z,5.11
2023-03-29T19:59:27.732Z,5.12
2023-03-29T20:02:18.052Z,5.13
2023-03-29T20:04:51.306Z,5.13
2023-03-29T20:07:20.812Z,5.10
2023-03-29T20:09:51.491Z,5.11
2023-03-29T20:12:20.839Z,5.14
2023-03-29T20:14:49.917Z,5.14
2023-03-29T20:17:18.920Z,5.16
2023-03-29T20:19:48.016Z,5.18
2023-03-29T20:22:17.042Z,5.13
2023-03-29T20:24:46.423Z,5.18
2023-03-29T20:27:17.096Z,5.16
2023-03-29T20:29:46.730Z,5.16
2023-03-29T20:32:15.948Z,5.13
2023-03-29T20:34:45.198Z,5.14
2023-03-29T20:37:14.770Z,5.12
2023-03-29T20:39:43.852Z,5.10
2023-03-29T20:42:14.287Z,5.09
2023-03-29T20:44:50.734Z,5.06
2023-03-29T20:47:27.701Z,5.07
2023-03-29T20:49:56.926Z,5.07
2023-03-29T20:52:31.011Z,5.07
2023-03-29T20:55:00.693Z,5.06
2023-03-29T20:57:30.572Z,5.05
2023-03-29T21:00:12.053Z,5.04
2023-03-29T21:02:41.430Z,5.03
2023-03-29T21:05:11.593Z,5.04
2023-03-29T21:07:40.565Z,5.04
2023-03-29T21:10:10.298Z,5.06
2023-03-29T21:12:40.250Z,5.04
2023-03-29T21:15:13.620Z,5.14
2023-03-29T21:17:43.117Z,5.38
2023-03-29T21:20:14.755Z,5.35
2023-03-29T21:22:44.463Z,5.20
2023-03-29T21:25:16.041Z,5.09
2023-03-29T21:27:45.529Z,5.04
2023-03-29T21:30:16.596Z,5.00
2023-03-29T21:32:45.752Z,4.98
2023-03-29T21:35:15.273Z,4.95
2023-03-29T21:37:47.024Z,4.94
2023-03-29T21:40:16.179Z,4.93
2023-03-29T21:42:45.417Z,4.92
2023-03-29T21:45:15.981Z,4.91
2023-03-29T21:47:45.097Z,4.93
2023-03-29T21:50:14.294Z,4.92
2023-03-29T21:52:43.526Z,4.88
2023-03-29T21:55:13.638Z,4.87
2023-03-29T21:57:43.233Z,4.89
2023-03-29T22:00:17.560Z,4.86
2023-03-29T22:02:46.782Z,4.90
2023-03-29T22:05:16.348Z,4.89
2023-03-29T22:07:45.479Z,4.89
2023-03-29T22:10:15.773Z,4.91
2023-03-29T22:12:45.819Z,4.90
2023-03-29T22:15:17.246Z,4.88
2023-03-29T22:17:48.322Z,4.88
2023-03-29T22:20:18.686Z,4.88
2023-03-29T22:22:49.922Z,4.86
2023-03-29T22:25:19.360Z,4.86
2023-03-29T22:27:49.401Z,4.88
2023-03-29T22:30:20.379Z,4.88
2023-03-29T22:32:50.663Z,4.90
2023-03-29T22:35:19.794Z,4.88
2023-03-29T22:37:48.860Z,4.88
2023-03-29T22:40:18.159Z,4.89
2023-03-29T22:42:47.169Z,4.88
2023-03-29T22:45:16.413Z,4.85
2023-03-29T22:47:46.795Z,4.83
2023-03-29T22:50:15.866Z,4.83
2023-03-29T22:52:45.271Z,4.82
2023-03-29T22:55:14.251Z,4.83
2023-03-29T22:57:43.828Z,4.84
2023-03-29T23:00:13.922Z,4.84
2023-03-29T23:02:42.956Z,4.84
2023-03-29T23:05:13.726Z,4.84
2023-03-29T23:07:42.603Z,4.84
2023-03-29T23:10:13.092Z,4.83
2023-03-29T23:12:43.080Z,4.85
2023-03-29T23:15:13.342Z,4.85
2023-03-29T23:17:42.305Z,4.84
2023-03-29T23:20:14.069Z,4.87
2023-03-29T23:22:43.233Z,4.86
2023-03-29T23:25:12.166Z,4.88
2023-03-29T23:27:42.481Z,4.88
2023-03-29T23:30:11.988Z,4.90
2023-03-29T23:32:41.150Z,4.90
2023-03-29T23:35:10.726Z,4.89
2023-03-29T23:37:41.416Z,4.85
2023-03-29T23:40:12.021Z,4.86
2023-03-29T23:42:42.360Z,4.87
2023-03-29T23:45:14.380Z,4.85
2023-03-29T23:47:44.217Z,4.87
2023-03-29T23:50:15.601Z,4.82
2023-03-29T23:52:46.757Z,4.83
2023-03-29T23:55:16.640Z,4.84
2023-03-29T23:57:45.658Z,4.83
